createdAt,value
2019-02-14T00:01:42.330Z,99.90
2019-02-14T00:04:13.623Z,99.90
2019-02-14T00:06:44.929Z,99.90
2019-02-14T00:09:16.637Z,99.90
2019-02-14T00:11:47.617Z,99.90
2019-02-14T00:14:19.464Z,99.90
2019-02-14T00:16:50.476Z,99.90
2019-02-14T00:19:22.081Z,99.90
2019-02-14T00:21:53.705Z,99.90
2019-02-14T00:24:24.731Z,99.90
2019-02-14T00:26:56.173Z,99.90
2019-02-14T00:29:27.530Z,99.90
2019-02-14T00:32:08.048Z,99.90
2019-02-14T00:34:44.044Z,99.90
2019-02-14T00:37:17.211Z,99.90
2019-02-14T00:39:53.537Z,99.90
2019-02-14T00:42:39.782Z,99.90
2019-02-14T00:45:19.774Z,99.90
2019-02-14T00:47:53.411Z,99.90
2019-02-14T00:50:29.378Z,99.90
2019-02-14T00:53:00.006Z,99.90
2019-02-14T00:55:31.992Z,99.90
2019-02-14T00:58:03.729Z,99.90
2019-02-14T01:00:53.224Z,99.90
2019-02-14T01:03:42.582Z,99.90
2019-02-14T01:06:22.261Z,99.90
2019-02-14T01:08:53.860Z,99.90
2019-02-14T01:11:25.961Z,99.90
2019-02-14T01:14:07.891Z,99.90
2019-02-14T01:16:38.794Z,99.90
2019-02-14T01:19:09.978Z,99.90
2019-02-14T01:21:41.647Z,99.90
2019-02-14T01:24:13.051Z,99.90
2019-02-14T01:26:44.010Z,99.90
2019-02-14T01:29:15.837Z,99.90
2019-02-14T01:31:47.145Z,99.90
2019-02-14T01:34:18.147Z,99.90
2019-02-14T01:36:49.642Z,99.90
2019-02-14T01:39:21.571Z,99.90
2019-02-14T01:41:52.989Z,99.90
2019-02-14T01:44:24.608Z,99.90
2019-02-14T01:46:55.848Z,99.90
2019-02-14T01:49:34.520Z,99.90
2019-02-14T01:52:05.789Z,99.90
2019-02-14T01:54:37.449Z,99.90
2019-02-14T01:57:09.268Z,99.90
2019-02-14T01:59:40.753Z,99.90
2019-02-14T03:01:59.576Z,99.90
2019-02-14T03:04:30.653Z,99.90
2019-02-14T03:07:02.284Z,99.90
2019-02-14T03:09:33.422Z,99.90
2019-02-14T03:16:05.447Z,99.90
2019-02-14T03:18:36.120Z,99.90
2019-02-14T03:21:07.185Z,99.90
2019-02-14T03:23:38.935Z,99.90
2019-02-14T03:26:10.226Z,99.90
2019-02-14T03:28:41.218Z,99.90
2019-02-14T03:31:12.846Z,99.90
2019-02-14T03:33:43.932Z,99.90
2019-02-14T03:36:19.104Z,99.90
2019-02-14T03:38:47.463Z,99.90
2019-02-14T03:41:19.124Z,99.90
2019-02-14T03:43:50.147Z,99.90
2019-02-14T03:46:21.493Z,99.90
2019-02-14T03:48:53.507Z,99.90
2019-02-14T03:51:25.184Z,99.90
2019-02-14T03:53:56.134Z,99.90
2019-02-14T03:56:27.099Z,99.90
2019-02-14T03:58:58.440Z,99.90
2019-02-14T04:01:29.822Z,99.90
2019-02-14T04:04:01.171Z,99.90
2019-02-14T04:06:32.522Z,99.90
2019-02-14T04:09:05.221Z,99.90
2019-02-14T04:11:36.835Z,99.90
2019-02-14T04:14:08.670Z,99.90
2019-02-14T04:20:28.267Z,99.90
2019-02-14T04:22:59.314Z,99.90
2019-02-14T04:25:30.694Z,99.90
2019-02-14T04:28:02.342Z,99.90
2019-02-14T04:30:33.840Z,99.90
2019-02-14T04:33:04.806Z,99.90
2019-02-14T04:35:36.499Z,99.90
2019-02-14T04:38:07.313Z,99.90
2019-02-14T04:40:37.634Z,99.90
2019-02-14T04:43:08.560Z,99.90
2019-02-14T04:45:39.598Z,99.90
2019-02-14T04:48:10.969Z,99.90
2019-02-14T04:50:42.302Z,99.90
2019-02-14T04:53:13.418Z,99.90
2019-02-14T04:55:54.505Z,99.90
2019-02-14T04:58:26.141Z,99.90
2019-02-14T05:00:57.504Z,99.90
2019-02-14T05:03:28.865Z,99.90
2019-02-14T05:06:01.592Z,99.90
2019-02-14T05:08:33.178Z,99.90
2019-02-14T05:11:04.868Z,99.90
2019-02-14T05:13:36.577Z,99.90
2019-02-14T05:16:07.664Z,99.90
2019-02-14T05:18:39.740Z,99.90
2019-02-14T05:21:11.081Z,99.90
2019-02-14T05:23:42.433Z,99.90
2019-02-14T05:26:13.466Z,99.90
2019-02-14T05:28:44.829Z,99.90
2019-02-14T05:31:15.546Z,99.90
2019-02-14T05:33:46.592Z,99.90
2019-02-14T05:36:17.942Z,99.90
2019-02-14T05:38:49.277Z,99.90
2019-02-14T05:41:21.037Z,99.90
2019-02-14T05:43:52.389Z,99.90
2019-02-14T05:46:23.704Z,99.90
2019-02-14T05:48:54.722Z,99.90
2019-02-14T05:51:26.032Z,99.90
2019-02-14T05:53:57.485Z,99.90
2019-02-14T05:56:29.424Z,99.90
2019-02-14T05:59:00.071Z,99.90
2019-02-14T06:01:32.024Z,99.90
2019-02-14T06:04:02.700Z,99.90
2019-02-14T06:06:39.651Z,99.90
2019-02-14T06:09:10.744Z,99.90
2019-02-14T06:11:42.310Z,99.90
2019-02-14T06:14:13.693Z,99.90
2019-02-14T06:16:44.832Z,99.90
2019-02-14T06:19:32.436Z,99.90
2019-02-14T06:22:03.801Z,99.90
2019-02-14T06:24:35.159Z,99.90
2019-02-14T06:27:06.275Z,99.90
2019-02-14T06:29:37.997Z,99.90
2019-02-14T06:32:08.687Z,99.90
2019-02-14T06:34:39.837Z,99.90
2019-02-14T06:37:11.097Z,99.90
2019-02-14T06:39:42.569Z,99.90
2019-02-14T06:42:30.004Z,99.90
2019-02-14T06:45:01.637Z,99.90
2019-02-14T06:47:38.182Z,99.90
2019-02-14T06:50:09.185Z,99.90
2019-02-14T06:52:40.993Z,99.90
2019-02-14T06:55:11.656Z,99.90
2019-02-14T06:57:42.302Z,99.90
2019-02-14T07:00:15.355Z,99.90
2019-02-14T07:02:46.728Z,99.90
2019-02-14T07:05:18.095Z,99.90
2019-02-14T07:07:49.689Z,99.90
2019-02-14T07:10:21.239Z,99.90
2019-02-14T07:12:52.898Z,99.90
2019-02-14T07:15:36.489Z,99.90
2019-02-14T07:18:07.992Z,99.90
2019-02-14T07:20:39.568Z,99.90
2019-02-14T07:23:11.241Z,99.90
2019-02-14T07:25:42.413Z,99.90
2019-02-14T07:28:14.163Z,99.90
2019-02-14T07:30:45.583Z,99.90
2019-02-14T07:33:16.813Z,99.90
2019-02-14T07:35:48.271Z,99.90
2019-02-14T07:38:19.326Z,99.90
2019-02-14T07:40:50.875Z,99.90
2019-02-14T07:43:22.354Z,99.90
2019-02-14T07:45:54.180Z,99.90
2019-02-14T07:48:25.930Z,99.90
2019-02-14T07:50:56.657Z,98.10
2019-02-14T07:53:27.519Z,96.80
2019-02-14T07:55:58.897Z,95.10
2019-02-14T07:58:30.726Z,93.50
2019-02-14T08:01:01.696Z,93.70
2019-02-14T08:03:32.980Z,93.70
2019-02-14T08:06:05.015Z,93.90
2019-02-14T08:08:36.433Z,94.30
2019-02-14T08:11:08.846Z,95.10
2019-02-14T08:13:40.221Z,95.10
2019-02-14T08:16:11.215Z,95.20
2019-02-14T08:18:42.564Z,95.60
2019-02-14T08:21:14.230Z,94.70
2019-02-14T08:23:45.262Z,95.40
2019-02-14T08:26:16.649Z,95.80
2019-02-14T08:28:48.128Z,96.10
2019-02-14T08:31:20.042Z,96.80
2019-02-14T08:33:51.169Z,97.40
2019-02-14T08:36:22.844Z,97.80
2019-02-14T08:38:53.842Z,97.70
2019-02-14T08:41:25.288Z,98.50
2019-02-14T08:44:12.404Z,97.90
2019-02-14T08:46:43.777Z,98.20
2019-02-14T08:49:15.329Z,97.50
2019-02-14T08:51:46.029Z,97.00
2019-02-14T08:54:17.950Z,97.00
2019-02-14T08:56:49.394Z,98.10
2019-02-14T08:59:20.844Z,98.70
2019-02-14T09:01:51.526Z,99.50
2019-02-14T09:04:23.099Z,98.90
2019-02-14T09:06:54.806Z,98.00
2019-02-14T09:09:27.889Z,96.00
2019-02-14T09:11:58.784Z,95.30
2019-02-14T09:14:30.223Z,93.50
2019-02-14T09:17:01.733Z,92.30
2019-02-14T09:19:33.761Z,91.80
2019-02-14T09:22:05.243Z,91.20
2019-02-14T09:24:36.188Z,90.10
2019-02-14T09:27:07.612Z,87.70
2019-02-14T09:29:39.018Z,86.70
2019-02-14T09:32:10.117Z,85.00
2019-02-14T09:34:41.729Z,84.80
2019-02-14T09:37:13.115Z,82.10
2019-02-14T09:39:44.565Z,80.40
2019-02-14T09:42:16.339Z,79.60
2019-02-14T09:44:47.674Z,78.00
2019-02-14T09:47:19.402Z,77.00
2019-02-14T09:49:50.453Z,76.90
2019-02-14T09:52:23.288Z,76.80
2019-02-14T09:54:55.064Z,76.30
2019-02-14T09:57:26.366Z,76.60
2019-02-14T09:59:57.009Z,74.90
2019-02-14T10:02:28.852Z,72.50
2019-02-14T10:05:00.240Z,71.70
2019-02-14T10:07:30.991Z,71.40
2019-02-14T10:10:02.994Z,71.20
2019-02-14T10:12:34.393Z,70.10
2019-02-14T10:15:05.869Z,66.20
2019-02-14T10:18:02.518Z,66.50
2019-02-14T10:20:33.845Z,66.10
2019-02-14T10:23:05.060Z,65.80
2019-02-14T10:25:36.173Z,65.90
2019-02-14T10:28:07.652Z,65.90
2019-02-14T10:30:40.187Z,65.20
2019-02-14T10:33:11.483Z,65.80
2019-02-14T10:35:42.597Z,65.70
2019-02-14T10:38:22.019Z,67.00
2019-02-14T10:40:47.314Z,68.00
2019-02-14T10:43:18.603Z,66.70
2019-02-14T10:45:50.033Z,69.60
2019-02-14T10:48:21.767Z,68.70
2019-02-14T10:50:53.221Z,64.40
2019-02-14T10:53:24.570Z,61.00
2019-02-14T10:55:55.623Z,59.00
2019-02-14T10:58:26.722Z,58.30
2019-02-14T11:01:11.839Z,57.80
2019-02-14T11:03:42.859Z,57.60
2019-02-14T11:06:13.991Z,56.80
2019-02-14T11:08:45.692Z,55.10
2019-02-14T11:11:16.972Z,57.10
2019-02-14T11:13:48.674Z,58.60
2019-02-14T11:16:20.045Z,57.80
2019-02-14T11:18:51.082Z,58.40
2019-02-14T11:21:22.269Z,56.20
2019-02-14T11:23:53.324Z,55.20
2019-02-14T11:26:24.724Z,54.30
2019-02-14T11:28:56.047Z,56.70
2019-02-14T11:31:27.472Z,58.50
2019-02-14T11:33:59.054Z,62.00
2019-02-14T11:36:30.322Z,61.40
2019-02-14T11:39:40.240Z,61.10
2019-02-14T11:42:11.899Z,58.60
2019-02-14T11:44:43.575Z,58.50
2019-02-14T11:47:14.703Z,59.10
2019-02-14T11:49:46.322Z,60.30
2019-02-14T11:52:17.696Z,60.50
2019-02-14T11:54:49.197Z,58.70
2019-02-14T11:57:20.898Z,58.40
2019-02-14T11:59:52.660Z,58.80
2019-02-14T12:02:24.420Z,59.50
2019-02-14T12:04:55.774Z,58.60
2019-02-14T12:07:26.864Z,59.70
2019-02-14T12:09:58.597Z,60.00
2019-02-14T12:12:30.141Z,59.80
2019-02-14T12:15:01.275Z,60.20
2019-02-14T12:17:32.989Z,60.10
2019-02-14T12:20:04.181Z,57.10
2019-02-14T12:22:35.843Z,57.60
2019-02-14T12:25:08.719Z,54.50
2019-02-14T12:27:40.043Z,53.90
2019-02-14T12:30:12.911Z,52.90
2019-02-14T12:32:44.385Z,53.20
2019-02-14T12:35:18.174Z,52.00
2019-02-14T12:37:49.552Z,52.80
2019-02-14T12:40:21.181Z,52.80
2019-02-14T12:42:51.829Z,53.80
2019-02-14T12:45:25.764Z,53.40
2019-02-14T12:47:56.821Z,51.70
2019-02-14T12:50:28.453Z,52.50
2019-02-14T12:52:59.482Z,52.20
2019-02-14T12:55:31.400Z,51.10
2019-02-14T12:58:02.714Z,51.70
2019-02-14T13:00:33.664Z,50.50
2019-02-14T13:03:05.424Z,50.10
2019-02-14T13:05:36.741Z,50.40
2019-02-14T13:08:08.492Z,50.40
2019-02-14T13:10:39.938Z,49.50
2019-02-14T13:13:11.670Z,47.00
2019-02-14T13:15:43.915Z,46.70
2019-02-14T13:18:15.617Z,47.50
2019-02-14T13:20:47.332Z,47.00
2019-02-14T13:23:18.990Z,47.00
2019-02-14T13:25:50.481Z,49.60
2019-02-14T13:28:49.362Z,51.90
2019-02-14T13:31:20.112Z,51.80
2019-02-14T13:33:51.828Z,50.20
2019-02-14T13:36:23.866Z,51.10
2019-02-14T13:38:55.781Z,52.80
2019-02-14T13:41:31.129Z,54.60
2019-02-14T13:44:00.992Z,55.50
2019-02-14T13:46:32.012Z,56.80
2019-02-14T13:49:03.502Z,57.50
2019-02-14T13:51:35.490Z,57.00
2019-02-14T13:54:06.819Z,54.90
2019-02-14T13:56:38.189Z,52.20
2019-02-14T13:59:10.518Z,52.30
2019-02-14T14:01:41.883Z,52.50
2019-02-14T14:04:13.145Z,51.80
2019-02-14T14:06:44.818Z,50.90
2019-02-14T14:09:16.032Z,50.40
2019-02-14T14:11:47.322Z,49.50
2019-02-14T14:14:18.440Z,49.70
2019-02-14T14:16:50.307Z,47.80
2019-02-14T14:19:22.227Z,47.90
2019-02-14T14:21:54.881Z,48.40
2019-02-14T14:24:26.582Z,50.20
2019-02-14T14:26:58.542Z,50.20
2019-02-14T14:29:31.443Z,49.80
2019-02-14T14:32:03.108Z,49.60
2019-02-14T14:34:33.866Z,48.60
2019-02-14T14:37:05.367Z,48.60
2019-02-14T14:39:36.983Z,50.50
2019-02-14T14:42:11.481Z,52.70
2019-02-14T14:44:47.368Z,53.70
2019-02-14T14:47:37.819Z,54.60
2019-02-14T14:50:08.430Z,55.50
2019-02-14T14:52:40.116Z,55.60
2019-02-14T14:55:11.102Z,54.70
2019-02-14T14:57:42.177Z,55.80
2019-02-14T15:00:48.017Z,56.70
2019-02-14T15:04:11.725Z,56.90
2019-02-14T15:06:43.613Z,55.80
2019-02-14T15:09:15.785Z,52.70
2019-02-14T15:11:49.815Z,52.20
2019-02-14T15:14:22.851Z,53.10
2019-02-14T15:16:55.736Z,53.70
2019-02-14T15:19:27.006Z,53.30
2019-02-14T15:22:00.553Z,51.40
2019-02-14T15:24:32.386Z,50.60
2019-02-14T15:27:04.942Z,51.50
2019-02-14T15:29:35.911Z,54.00
2019-02-14T15:32:07.780Z,55.60
2019-02-14T15:34:45.449Z,56.10
2019-02-14T15:37:26.355Z,55.90
2019-02-14T15:40:08.380Z,55.50
2019-02-14T15:42:35.889Z,55.60
2019-02-14T15:45:07.879Z,56.10
2019-02-14T15:47:40.383Z,57.20
2019-02-14T15:50:11.814Z,58.40
2019-02-14T15:52:44.203Z,59.20
2019-02-14T15:55:15.769Z,61.90
2019-02-14T15:57:47.511Z,63.40
2019-02-14T16:00:20.497Z,64.60
2019-02-14T16:03:03.742Z,64.80
2019-02-14T16:05:35.506Z,65.50
2019-02-14T16:08:06.451Z,66.50
2019-02-14T16:10:37.376Z,67.20
2019-02-14T16:13:09.858Z,68.00
2019-02-14T16:15:41.166Z,67.90
2019-02-14T16:18:12.246Z,68.30
2019-02-14T16:20:44.375Z,68.80
2019-02-14T16:23:20.052Z,69.00
2019-02-14T16:25:52.016Z,69.70
2019-02-14T16:28:23.649Z,70.90
2019-02-14T16:30:56.808Z,72.10
2019-02-14T16:34:15.473Z,72.00
2019-02-14T16:36:48.857Z,73.30
2019-02-14T16:39:22.943Z,75.20
2019-02-14T16:41:55.485Z,75.80
2019-02-14T16:44:26.736Z,77.10
2019-02-14T16:46:57.849Z,77.60
2019-02-14T16:49:37.115Z,78.50
2019-02-14T16:52:08.643Z,79.50
2019-02-14T16:55:02.397Z,81.30
2019-02-14T16:57:38.814Z,81.80
2019-02-14T17:00:11.973Z,81.80
2019-02-14T17:02:42.955Z,81.80
2019-02-14T17:05:13.666Z,81.60
2019-02-14T17:07:45.733Z,82.60
2019-02-14T17:10:16.796Z,82.80
2019-02-14T17:12:48.113Z,84.60
2019-02-14T17:15:19.559Z,85.20
2019-02-14T17:17:51.334Z,85.80
2019-02-14T17:20:22.088Z,86.80
2019-02-14T17:22:53.877Z,87.70
2019-02-14T17:25:25.891Z,88.10
2019-02-14T17:27:57.024Z,88.60
2019-02-14T17:30:28.480Z,89.10
2019-02-14T17:32:59.534Z,89.20
2019-02-14T17:35:30.491Z,89.90
2019-02-14T17:38:01.274Z,90.30
2019-02-14T17:40:31.937Z,90.60
2019-02-14T17:43:05.685Z,90.80
2019-02-14T17:45:36.786Z,90.90
2019-02-14T17:48:07.497Z,91.00
2019-02-14T17:50:38.660Z,91.20
2019-02-14T17:53:10.437Z,91.50
2019-02-14T18:00:15.192Z,91.90
2019-02-14T18:07:38.406Z,92.70
2019-02-14T18:10:11.197Z,92.80
2019-02-14T18:12:44.394Z,93.00
2019-02-14T18:15:15.160Z,93.00
2019-02-14T18:18:18.816Z,93.20
2019-02-14T18:21:59.968Z,93.30
2019-02-14T18:25:09.093Z,93.40
2019-02-14T18:32:13.963Z,93.80
2019-02-14T18:35:19.779Z,93.90
2019-02-14T18:37:58.425Z,94.00
2019-02-14T18:40:32.901Z,94.20
2019-02-14T18:43:18.986Z,94.50
2019-02-14T18:46:16.502Z,94.80
2019-02-14T18:48:50.530Z,94.90
2019-02-14T18:51:23.190Z,95.20
2019-02-14T18:54:08.857Z,95.50
2019-02-14T18:56:42.575Z,95.80
2019-02-14T18:59:30.596Z,96.20
2019-02-14T19:02:00.241Z,96.50
2019-02-14T19:04:56.999Z,96.90
2019-02-14T19:08:05.230Z,97.50
2019-02-14T19:10:57.091Z,98.30
2019-02-14T19:13:53.134Z,98.90
2019-02-14T19:17:05.319Z,99.50
2019-02-14T19:20:08.496Z,99.90
2019-02-14T19:22:39.294Z,99.90
2019-02-14T19:28:22.858Z,99.90
2019-02-14T19:31:30.504Z,99.90
2019-02-14T19:34:33.507Z,99.90
2019-02-14T19:37:06.647Z,99.90
2019-02-14T19:39:43.291Z,99.90
2019-02-14T19:42:14.839Z,99.90
2019-02-14T19:44:46.172Z,99.90
2019-02-14T19:47:17.650Z,99.90
2019-02-14T19:49:49.101Z,99.90
2019-02-14T19:52:20.853Z,99.90
2019-02-14T19:54:51.919Z,99.90
2019-02-14T19:57:25.806Z,99.90
2019-02-14T19:59:57.910Z,99.90
2019-02-14T20:03:51.021Z,99.90
2019-02-14T20:05:47.252Z,99.90
2019-02-14T20:08:19.005Z,99.90
2019-02-14T20:10:50.614Z,99.90
2019-02-14T20:13:22.343Z,99.90
2019-02-14T20:15:53.416Z,99.90
2019-02-14T20:18:39.161Z,99.90
2019-02-14T20:21:12.893Z,99.90
2019-02-14T20:23:44.018Z,99.90
2019-02-14T20:26:17.512Z,99.90
2019-02-14T20:29:38.133Z,99.90
2019-02-14T20:32:09.579Z,99.90
2019-02-14T20:35:02.158Z,99.90
2019-02-14T20:37:33.585Z,99.90
2019-02-14T20:40:06.198Z,99.90
2019-02-14T20:43:02.020Z,99.90
2019-02-14T20:45:33.208Z,99.90
2019-02-14T20:49:04.783Z,99.90
2019-02-14T20:52:21.850Z,99.90
2019-02-14T20:55:24.275Z,99.90
2019-02-14T20:58:03.352Z,99.90
2019-02-14T21:00:44.957Z,99.90
2019-02-14T21:03:22.918Z,99.90
2019-02-14T21:05:54.042Z,99.90
2019-02-14T21:08:26.201Z,99.90
2019-02-14T21:14:30.016Z,99.90
2019-02-14T21:18:30.473Z,99.90
2019-02-14T21:21:01.348Z,99.90
2019-02-14T21:24:05.304Z,99.90
2019-02-14T21:26:44.792Z,99.90
2019-02-14T21:29:15.757Z,99.90
2019-02-14T21:31:58.893Z,99.90
2019-02-14T21:34:30.091Z,99.90
2019-02-14T21:37:01.177Z,99.90
2019-02-14T21:39:39.354Z,99.90
2019-02-14T21:42:19.827Z,99.90
2019-02-14T21:44:43.650Z,99.90
2019-02-14T21:47:15.506Z,99.90
2019-02-14T21:49:46.854Z,99.90
2019-02-14T21:52:17.883Z,99.90
2019-02-14T21:54:49.236Z,99.90
2019-02-14T21:58:05.967Z,99.90
2019-02-14T22:00:52.863Z,99.90
2019-02-14T22:03:24.194Z,99.90
2019-02-14T22:05:56.379Z,99.90
2019-02-14T22:08:31.140Z,99.90
2019-02-14T22:11:14.522Z,99.90
2019-02-14T22:13:45.458Z,99.90
2019-02-14T22:16:23.409Z,99.90
2019-02-14T22:18:55.394Z,99.90
2019-02-14T22:21:56.202Z,99.90
2019-02-14T22:24:21.093Z,99.90
2019-02-14T22:26:53.073Z,99.90
2019-02-14T22:29:24.663Z,99.90
2019-02-14T22:31:55.959Z,99.90
2019-02-14T22:34:31.389Z,99.90
2019-02-14T22:37:02.657Z,99.90
2019-02-14T22:39:37.504Z,99.90
2019-02-14T22:42:28.753Z,99.90
2019-02-14T22:45:02.050Z,99.90
2019-02-14T22:47:34.157Z,99.90
2019-02-14T22:50:06.080Z,99.90
2019-02-14T22:52:39.535Z,99.90
2019-02-14T22:55:12.605Z,99.90
2019-02-14T22:57:44.729Z,99.90
2019-02-14T23:00:45.815Z,99.90
2019-02-14T23:03:21.113Z,99.90
2019-02-14T23:05:58.190Z,99.90
2019-02-14T23:08:29.867Z,99.90
2019-02-14T23:11:27.948Z,99.90
2019-02-14T23:13:58.287Z,99.90
2019-02-14T23:16:29.664Z,99.90
2019-02-14T23:19:03.305Z,99.90
2019-02-14T23:21:40.364Z,99.90
2019-02-14T23:24:11.741Z,99.90
2019-02-14T23:26:43.669Z,99.90
2019-02-14T23:29:14.643Z,99.90
2019-02-14T23:31:45.755Z,99.90
2019-02-14T23:34:16.742Z,99.90
2019-02-14T23:36:48.396Z,99.90
2019-02-14T23:39:21.371Z,99.90
2019-02-14T23:42:11.738Z,99.90
2019-02-14T23:44:43.210Z,99.90
2019-02-14T23:47:24.352Z,99.90
2019-02-14T23:49:55.709Z,99.90
2019-02-14T23:52:27.009Z,99.90
2019-02-14T23:54:58.684Z,99.90
2019-02-14T23:57:30.609Z,99.90
